createdAt,value
2017-01-26T00:00:03.126Z,99.99
2017-01-26T00:01:03.092Z,99.99
2017-01-26T00:02:03.067Z,99.99
2017-01-26T00:03:03.027Z,99.99
2017-01-26T00:04:03.001Z,99.99
2017-01-26T00:05:03.030Z,99.99
2017-01-26T00:06:02.947Z,99.99
2017-01-26T00:07:02.521Z,99.99
2017-01-26T00:08:02.888Z,99.99
2017-01-26T00:09:02.457Z,99.99
2017-01-26T00:10:02.827Z,99.99
2017-01-26T00:11:02.857Z,99.99
2017-01-26T00:12:02.376Z,99.99
2017-01-26T00:13:02.786Z,99.99
2017-01-26T00:14:02.727Z,99.99
2017-01-26T00:15:02.338Z,99.99
2017-01-26T00:16:02.267Z,99.99
2017-01-26T00:17:02.252Z,99.99
2017-01-26T00:18:02.612Z,99.99
2017-01-26T00:19:02.643Z,99.99
2017-01-26T00:20:02.551Z,99.99
2017-01-26T00:21:02.567Z,99.99
2017-01-26T00:22:02.526Z,99.99
2017-01-26T00:23:02.469Z,99.99
2017-01-26T00:24:02.039Z,99.99
2017-01-26T00:25:02.507Z,99.99
2017-01-26T00:26:02.381Z,99.99
2017-01-26T00:27:02.040Z,99.99
2017-01-26T00:28:01.933Z,99.99
2017-01-26T00:29:02.293Z,99.99
2017-01-26T00:30:01.866Z,99.99
2017-01-26T00:31:02.346Z,99.99
2017-01-26T00:32:01.803Z,99.99
2017-01-26T00:33:02.191Z,99.99
2017-01-26T00:34:01.759Z,99.99
2017-01-26T00:35:02.128Z,99.99
2017-01-26T00:36:01.698Z,99.99
2017-01-26T00:37:01.668Z,99.99
2017-01-26T00:38:02.048Z,99.99
2017-01-26T00:39:01.610Z,99.99
2017-01-26T00:40:01.585Z,99.99
2017-01-26T00:41:01.621Z,99.99
2017-01-26T00:42:01.524Z,99.99
2017-01-26T00:43:01.499Z,99.99
2017-01-26T00:44:01.874Z,99.99
2017-01-26T00:45:01.842Z,99.99
2017-01-26T00:46:01.811Z,99.99
2017-01-26T00:47:01.843Z,99.99
2017-01-26T00:48:01.767Z,99.99
2017-01-26T00:49:01.332Z,99.99
2017-01-26T00:50:01.704Z,99.99
2017-01-26T00:51:01.671Z,99.99
2017-01-26T00:52:01.644Z,99.99
2017-01-26T00:53:01.214Z,99.99
2017-01-26T00:54:01.180Z,99.99
2017-01-26T00:55:01.565Z,99.99
2017-01-26T00:56:01.541Z,99.99
2017-01-26T00:57:01.517Z,99.99
2017-01-26T00:58:01.525Z,99.99
2017-01-26T00:59:01.453Z,99.99
2017-01-26T01:00:01.433Z,99.99
2017-01-26T01:01:01.398Z,99.99
2017-01-26T01:02:01.380Z,99.99
2017-01-26T01:03:01.336Z,99.99
2017-01-26T01:04:01.303Z,99.99
2017-01-26T01:05:01.287Z,99.99
2017-01-26T01:06:01.258Z,99.99
2017-01-26T01:07:00.823Z,99.99
2017-01-26T01:08:00.793Z,99.99
2017-01-26T01:09:01.167Z,99.99
2017-01-26T01:10:01.176Z,99.99
2017-01-26T01:11:00.707Z,99.99
2017-01-26T01:12:00.685Z,99.99
2017-01-26T01:13:00.644Z,99.99
2017-01-26T01:14:00.624Z,99.99
2017-01-26T01:15:01.000Z,99.99
2017-01-26T01:16:00.563Z,99.99
2017-01-26T01:17:00.944Z,99.99
2017-01-26T01:18:00.511Z,99.99
2017-01-26T01:19:00.484Z,99.99
2017-01-26T01:20:00.860Z,99.99
2017-01-26T01:21:00.829Z,99.99
2017-01-26T01:22:00.797Z,99.99
2017-01-26T01:23:00.778Z,99.99
2017-01-26T01:24:00.349Z,99.99
2017-01-26T01:25:00.319Z,99.99
2017-01-26T01:26:00.335Z,99.99
2017-01-26T01:27:00.253Z,99.99
2017-01-26T01:28:00.626Z,99.99
2017-01-26T01:29:00.606Z,99.99
2017-01-26T01:30:00.188Z,99.99
2017-01-26T01:31:00.542Z,99.99
2017-01-26T01:32:00.511Z,99.99
2017-01-26T01:33:00.080Z,99.99
2017-01-26T01:34:00.458Z,99.99
2017-01-26T01:35:00.023Z,99.99
2017-01-26T01:36:00.007Z,99.99
2017-01-26T01:37:00.366Z,99.99
2017-01-26T01:38:00.341Z,99.99
2017-01-26T01:39:00.320Z,99.99
2017-01-26T01:39:59.876Z,99.99
2017-01-26T01:41:00.258Z,99.99
2017-01-26T01:41:59.825Z,99.99
2017-01-26T01:43:00.194Z,99.99
2017-01-26T01:43:59.777Z,99.99
2017-01-26T01:45:00.150Z,99.99
2017-01-26T01:46:00.117Z,99.99
2017-01-26T01:47:00.083Z,99.99
2017-01-26T01:48:00.052Z,99.99
2017-01-26T01:49:00.025Z,99.99
2017-01-26T01:49:59.993Z,99.99
2017-01-26T01:50:59.976Z,99.99
2017-01-26T01:51:59.944Z,99.99
2017-01-26T01:52:59.909Z,99.99
2017-01-26T01:53:59.876Z,99.99
2017-01-26T01:54:59.845Z,99.99
2017-01-26T01:55:59.826Z,99.99
2017-01-26T01:56:59.807Z,99.99
2017-01-26T01:57:59.771Z,99.99
2017-01-26T01:58:59.334Z,99.99
2017-01-26T01:59:59.716Z,99.99
2017-01-26T02:00:59.275Z,99.99
2017-01-26T02:01:59.659Z,99.99
2017-01-26T02:02:59.221Z,99.99
2017-01-26T02:03:59.221Z,99.99
2017-01-26T02:04:59.566Z,99.99
2017-01-26T02:05:59.144Z,99.99
2017-01-26T02:06:59.511Z,99.99
2017-01-26T02:07:59.487Z,99.99
2017-01-26T02:08:59.046Z,99.99
2017-01-26T02:09:59.024Z,99.99
2017-01-26T02:10:59.401Z,99.99
2017-01-26T02:11:58.963Z,99.99
2017-01-26T02:12:59.330Z,99.99
2017-01-26T02:13:58.903Z,99.99
2017-01-26T02:14:58.883Z,99.99
2017-01-26T02:15:59.244Z,99.99
2017-01-26T02:16:59.216Z,99.99
2017-01-26T02:17:58.791Z,99.99
2017-01-26T02:18:58.759Z,99.99
2017-01-26T02:19:58.739Z,99.99
2017-01-26T02:20:59.109Z,99.99
2017-01-26T02:21:59.077Z,99.99
2017-01-26T02:22:58.641Z,99.99
2017-01-26T02:23:59.019Z,99.99
2017-01-26T02:24:58.996Z,99.99
2017-01-26T02:25:58.960Z,99.99
2017-01-26T02:26:58.935Z,99.99
2017-01-26T02:27:58.917Z,99.99
2017-01-26T02:28:58.476Z,99.99
2017-01-26T02:29:58.439Z,99.99
2017-01-26T02:30:58.823Z,99.99
2017-01-26T02:31:58.787Z,99.99
2017-01-26T02:32:58.772Z,99.99
2017-01-26T02:33:58.728Z,99.99
2017-01-26T02:34:58.701Z,99.99
2017-01-26T02:35:58.667Z,99.99
2017-01-26T02:36:58.656Z,99.99
2017-01-26T02:37:58.621Z,99.99
2017-01-26T02:38:58.579Z,99.99
2017-01-26T02:39:58.151Z,99.99
2017-01-26T02:40:58.141Z,99.99
2017-01-26T02:41:58.101Z,99.99
2017-01-26T02:42:58.078Z,99.99
2017-01-26T02:43:58.435Z,99.99
2017-01-26T02:44:58.016Z,99.99
2017-01-26T02:45:58.035Z,99.99
2017-01-26T02:46:57.944Z,99.99
2017-01-26T02:47:58.325Z,99.99
2017-01-26T02:48:58.303Z,99.99
2017-01-26T02:49:57.863Z,99.99
2017-01-26T02:50:58.241Z,99.99
2017-01-26T02:51:57.912Z,99.99
2017-01-26T02:52:57.772Z,99.99
2017-01-26T02:53:58.189Z,99.99
2017-01-26T02:54:58.129Z,99.99
2017-01-26T02:55:58.130Z,99.99
2017-01-26T02:56:58.054Z,99.99
2017-01-26T02:57:58.035Z,99.99
2017-01-26T02:58:58.048Z,99.99
2017-01-26T02:59:57.977Z,99.99
2017-01-26T03:00:57.548Z,99.99
2017-01-26T03:01:57.926Z,99.99
2017-01-26T03:02:57.902Z,99.99
2017-01-26T03:03:57.862Z,99.99
2017-01-26T03:04:57.436Z,99.99
2017-01-26T03:05:57.803Z,99.99
2017-01-26T03:06:57.394Z,99.99
2017-01-26T03:07:57.742Z,99.99
2017-01-26T03:08:57.720Z,99.99
2017-01-26T03:09:57.282Z,99.99
2017-01-26T03:10:57.654Z,99.99
2017-01-26T03:11:57.220Z,99.99
2017-01-26T03:12:57.593Z,99.99
2017-01-26T03:13:57.568Z,99.99
2017-01-26T03:14:57.639Z,99.99
2017-01-26T03:15:57.518Z,99.99
2017-01-26T03:16:57.486Z,99.99
2017-01-26T03:17:57.447Z,99.99
2017-01-26T03:18:57.016Z,99.99
2017-01-26T03:19:57.387Z,99.99
2017-01-26T03:20:56.955Z,99.99
2017-01-26T03:21:57.334Z,99.99
2017-01-26T03:22:56.905Z,99.99
2017-01-26T03:23:57.267Z,99.99
2017-01-26T03:24:57.254Z,99.99
2017-01-26T03:25:56.812Z,99.99
2017-01-26T03:26:56.785Z,99.99
2017-01-26T03:27:56.748Z,99.99
2017-01-26T03:28:56.722Z,99.99
2017-01-26T03:29:57.120Z,99.99
2017-01-26T03:30:56.672Z,99.99
2017-01-26T03:31:57.045Z,99.99
2017-01-26T03:32:57.013Z,99.99
2017-01-26T03:33:56.982Z,99.99
2017-01-26T03:34:56.950Z,99.99
2017-01-26T03:35:56.520Z,99.99
2017-01-26T03:36:56.898Z,99.99
2017-01-26T03:37:56.471Z,99.99
2017-01-26T03:38:56.849Z,99.99
2017-01-26T03:39:56.809Z,99.99
2017-01-26T03:40:56.831Z,99.99
2017-01-26T03:41:56.366Z,99.99
2017-01-26T03:42:56.363Z,99.99
2017-01-26T03:43:56.693Z,99.99
2017-01-26T03:44:56.688Z,99.99
2017-01-26T03:45:56.232Z,99.99
2017-01-26T03:46:56.291Z,99.99
2017-01-26T03:47:56.599Z,99.99
2017-01-26T03:48:56.644Z,99.99
2017-01-26T03:49:56.117Z,99.99
2017-01-26T03:50:56.494Z,99.99
2017-01-26T03:51:56.461Z,99.99
2017-01-26T03:52:56.036Z,99.99
2017-01-26T03:53:56.006Z,99.99
2017-01-26T03:54:56.375Z,99.99
2017-01-26T03:55:56.344Z,99.99
2017-01-26T03:56:56.324Z,99.99
2017-01-26T03:57:55.884Z,99.99
2017-01-26T03:58:56.263Z,99.99
2017-01-26T03:59:56.225Z,99.99
2017-01-26T04:00:56.202Z,99.99
2017-01-26T04:01:56.172Z,99.99
2017-01-26T04:02:55.751Z,99.99
2017-01-26T04:03:55.713Z,99.99
2017-01-26T04:04:56.093Z,99.99
2017-01-26T04:05:56.051Z,99.99
2017-01-26T04:06:56.029Z,99.99
2017-01-26T04:07:55.997Z,99.99
2017-01-26T04:08:55.978Z,99.99
2017-01-26T04:09:55.539Z,99.99
2017-01-26T04:10:55.919Z,99.99
2017-01-26T04:11:55.478Z,99.99
2017-01-26T04:12:55.850Z,99.99
2017-01-26T04:13:55.419Z,99.99
2017-01-26T04:14:55.385Z,99.99
2017-01-26T04:15:55.775Z,99.99
2017-01-26T04:16:55.345Z,99.99
2017-01-26T04:17:55.735Z,99.99
2017-01-26T04:18:55.682Z,99.99
2017-01-26T04:19:55.649Z,99.99
2017-01-26T04:20:55.618Z,99.99
2017-01-26T04:21:55.181Z,99.99
2017-01-26T04:22:55.167Z,99.99
2017-01-26T04:23:55.538Z,99.99
2017-01-26T04:24:55.508Z,99.99
2017-01-26T04:25:55.479Z,99.99
2017-01-26T04:26:55.449Z,99.99
2017-01-26T04:27:55.411Z,99.99
2017-01-26T04:28:54.987Z,99.99
2017-01-26T04:29:54.983Z,99.99
2017-01-26T04:30:54.922Z,99.99
2017-01-26T04:31:55.305Z,99.99
2017-01-26T04:32:55.275Z,99.99
2017-01-26T04:33:54.835Z,99.99
2017-01-26T04:34:54.818Z,99.99
2017-01-26T04:35:54.788Z,99.99
2017-01-26T04:36:54.757Z,99.99
2017-01-26T04:37:54.726Z,99.99
2017-01-26T04:38:54.701Z,99.99
2017-01-26T04:39:54.669Z,99.99
2017-01-26T04:40:55.038Z,99.99
2017-01-26T04:41:55.054Z,99.99
2017-01-26T04:42:54.979Z,99.99
2017-01-26T04:43:54.959Z,99.99
2017-01-26T04:44:54.928Z,99.99
2017-01-26T04:45:54.914Z,99.99
2017-01-26T04:46:54.863Z,99.99
2017-01-26T04:47:54.487Z,99.99
2017-01-26T04:48:54.406Z,99.99
2017-01-26T04:49:54.787Z,99.99
2017-01-26T04:50:54.752Z,99.99
2017-01-26T04:51:54.414Z,99.99
2017-01-26T04:52:54.295Z,99.99
2017-01-26T04:53:54.658Z,99.99
2017-01-26T04:54:54.633Z,99.99
2017-01-26T04:55:54.609Z,99.99
2017-01-26T04:56:54.578Z,99.99
2017-01-26T04:57:54.538Z,99.99
2017-01-26T04:58:54.116Z,99.99
2017-01-26T04:59:54.083Z,99.99
2017-01-26T05:00:54.464Z,99.99
2017-01-26T05:01:54.425Z,99.99
2017-01-26T05:02:54.029Z,99.99
2017-01-26T05:03:54.374Z,99.99
2017-01-26T05:04:53.939Z,99.99
2017-01-26T05:05:54.318Z,99.99
2017-01-26T05:06:54.287Z,99.99
2017-01-26T05:07:53.857Z,99.99
2017-01-26T05:08:54.227Z,99.99
2017-01-26T05:09:53.799Z,99.99
2017-01-26T05:10:54.176Z,99.99
2017-01-26T05:11:54.142Z,99.99
2017-01-26T05:12:54.110Z,99.99
2017-01-26T05:13:54.080Z,99.99
2017-01-26T05:14:53.642Z,99.99
2017-01-26T05:15:54.023Z,99.99
2017-01-26T05:16:54.006Z,99.99
2017-01-26T05:17:53.559Z,99.99
2017-01-26T05:18:53.941Z,99.99
2017-01-26T05:19:53.502Z,99.99
2017-01-26T05:20:53.882Z,99.99
2017-01-26T05:21:53.861Z,99.99
2017-01-26T05:22:53.811Z,99.99
2017-01-26T05:23:53.399Z,99.99
2017-01-26T05:24:53.769Z,99.99
2017-01-26T05:25:53.758Z,99.99
2017-01-26T05:26:53.702Z,99.99
2017-01-26T05:27:53.673Z,99.99
2017-01-26T05:28:53.643Z,99.99
2017-01-26T05:29:53.614Z,99.99
2017-01-26T05:30:53.585Z,99.99
2017-01-26T05:31:53.560Z,99.99
2017-01-26T05:32:53.535Z,99.99
2017-01-26T05:33:53.514Z,99.99
2017-01-26T05:34:53.527Z,99.99
2017-01-26T05:35:53.443Z,99.99
2017-01-26T05:36:53.412Z,99.99
2017-01-26T05:37:52.979Z,99.99
2017-01-26T05:38:53.358Z,99.99
2017-01-26T05:39:53.326Z,99.99
2017-01-26T05:40:53.301Z,99.99
2017-01-26T05:41:52.872Z,99.99
2017-01-26T05:42:52.833Z,99.99
2017-01-26T05:43:53.209Z,99.99
2017-01-26T05:44:53.178Z,99.99
2017-01-26T05:45:52.760Z,99.99
2017-01-26T05:46:52.718Z,99.99
2017-01-26T05:47:53.105Z,99.99
2017-01-26T05:48:53.066Z,99.99
2017-01-26T05:49:53.055Z,99.99
2017-01-26T05:50:53.000Z,99.99
2017-01-26T05:51:52.977Z,99.99
2017-01-26T05:52:52.946Z,99.99
2017-01-26T05:53:52.915Z,99.99
2017-01-26T05:54:52.485Z,99.99
2017-01-26T05:55:52.872Z,99.99
2017-01-26T05:56:52.837Z,99.99
2017-01-26T05:57:52.800Z,99.99
2017-01-26T05:58:52.362Z,99.99
2017-01-26T05:59:52.341Z,99.99
2017-01-26T06:00:52.719Z,99.99
2017-01-26T06:01:52.675Z,99.99
2017-01-26T06:02:52.658Z,99.99
2017-01-26T06:03:52.228Z,99.99
2017-01-26T06:04:52.609Z,99.99
2017-01-26T06:05:52.157Z,99.99
2017-01-26T06:06:52.534Z,99.99
2017-01-26T06:07:52.508Z,99.99
2017-01-26T06:08:52.076Z,99.99
2017-01-26T06:09:52.477Z,99.99
2017-01-26T06:10:52.426Z,99.99
2017-01-26T06:11:51.983Z,99.99
2017-01-26T06:12:51.961Z,99.99
2017-01-26T06:13:51.928Z,99.99
2017-01-26T06:14:52.305Z,99.99
2017-01-26T06:15:52.274Z,99.99
2017-01-26T06:16:52.238Z,99.99
2017-01-26T06:17:52.217Z,99.99
2017-01-26T06:18:51.782Z,99.99
2017-01-26T06:19:51.762Z,99.99
2017-01-26T06:20:52.281Z,99.99
2017-01-26T06:21:51.727Z,99.99
2017-01-26T06:22:51.659Z,99.99
2017-01-26T06:23:51.635Z,99.99
2017-01-26T06:24:51.608Z,99.99
2017-01-26T06:25:51.582Z,99.99
2017-01-26T06:26:51.958Z,99.99
2017-01-26T06:27:51.926Z,99.99
2017-01-26T06:28:51.893Z,99.99
2017-01-26T06:29:51.865Z,99.99
2017-01-26T06:30:51.431Z,99.99
2017-01-26T06:31:51.798Z,99.99
2017-01-26T06:32:51.375Z,99.99
2017-01-26T06:33:51.754Z,99.99
2017-01-26T06:34:51.726Z,99.99
2017-01-26T06:35:51.694Z,99.99
2017-01-26T06:36:51.263Z,99.99
2017-01-26T06:37:51.624Z,99.99
2017-01-26T06:38:51.600Z,99.99
2017-01-26T06:39:51.167Z,99.99
2017-01-26T06:40:51.543Z,99.99
2017-01-26T06:41:51.111Z,99.99
2017-01-26T06:42:51.081Z,99.99
2017-01-26T06:43:51.457Z,99.99
2017-01-26T06:44:51.426Z,99.99
2017-01-26T06:45:50.987Z,99.99
2017-01-26T06:46:51.363Z,99.99
2017-01-26T06:47:51.330Z,99.99
2017-01-26T06:48:51.315Z,99.99
2017-01-26T06:49:51.293Z,99.99
2017-01-26T06:50:51.257Z,99.99
2017-01-26T06:51:51.225Z,99.99
2017-01-26T06:52:51.195Z,99.99
2017-01-26T06:53:51.164Z,99.99
2017-01-26T06:54:50.772Z,99.99
2017-01-26T06:55:50.704Z,99.99
2017-01-26T06:56:50.712Z,99.99
2017-01-26T06:57:50.636Z,99.99
2017-01-26T06:58:51.032Z,99.99
2017-01-26T06:59:50.991Z,99.99
2017-01-26T07:00:50.955Z,99.99
2017-01-26T07:01:50.522Z,99.99
2017-01-26T07:02:50.953Z,99.99
2017-01-26T07:03:50.864Z,99.99
2017-01-26T07:04:50.448Z,99.99
2017-01-26T07:05:50.417Z,99.99
2017-01-26T07:06:50.469Z,99.99
2017-01-26T07:07:50.756Z,99.99
2017-01-26T07:08:50.725Z,99.99
2017-01-26T07:09:50.719Z,99.99
2017-01-26T07:10:50.804Z,99.99
2017-01-26T07:11:50.693Z,99.99
2017-01-26T07:12:50.632Z,99.99
2017-01-26T07:13:50.169Z,99.99
2017-01-26T07:14:50.553Z,99.99
2017-01-26T07:15:50.526Z,99.99
2017-01-26T07:16:50.192Z,99.99
2017-01-26T07:17:50.522Z,99.99
2017-01-26T07:18:50.138Z,99.99
2017-01-26T07:19:50.401Z,99.99
2017-01-26T07:20:50.378Z,99.99
2017-01-26T07:21:49.951Z,99.99
2017-01-26T07:22:50.378Z,99.99
2017-01-26T07:23:50.284Z,99.99
2017-01-26T07:24:50.257Z,99.99
2017-01-26T07:25:50.227Z,99.99
2017-01-26T07:26:49.794Z,99.99
2017-01-26T07:27:50.165Z,99.99
2017-01-26T07:28:50.141Z,99.99
2017-01-26T07:29:49.760Z,99.99
2017-01-26T07:30:50.084Z,99.99
2017-01-26T07:31:50.055Z,99.99
2017-01-26T07:32:50.022Z,99.99
2017-01-26T07:33:49.589Z,99.99
2017-01-26T07:34:49.565Z,99.99
2017-01-26T07:35:49.953Z,99.99
2017-01-26T07:36:49.519Z,99.99
2017-01-26T07:37:49.881Z,99.99
2017-01-26T07:38:49.840Z,99.99
2017-01-26T07:39:49.409Z,99.99
2017-01-26T07:40:49.817Z,99.99
2017-01-26T07:41:49.787Z,99.99
2017-01-26T07:42:49.751Z,99.99
2017-01-26T07:43:49.712Z,99.99
2017-01-26T07:44:49.268Z,99.99
2017-01-26T07:45:49.247Z,99.99
2017-01-26T07:46:49.609Z,99.99
2017-01-26T07:47:49.175Z,99.99
2017-01-26T07:48:49.551Z,99.99
2017-01-26T07:49:49.518Z,99.99
2017-01-26T07:50:49.094Z,99.99
2017-01-26T07:51:49.063Z,99.99
2017-01-26T07:52:49.463Z,99.99
2017-01-26T07:53:49.003Z,99.99
2017-01-26T07:54:49.382Z,99.99
2017-01-26T07:55:49.350Z,99.99
2017-01-26T07:56:49.320Z,99.99
2017-01-26T07:57:49.296Z,99.99
2017-01-26T07:58:48.853Z,99.99
2017-01-26T07:59:48.836Z,99.99
2017-01-26T08:00:49.193Z,99.99
2017-01-26T08:01:49.178Z,99.99
2017-01-26T08:02:48.737Z,99.99
2017-01-26T08:03:48.723Z,99.99
2017-01-26T08:04:49.100Z,99.99
2017-01-26T08:05:49.051Z,99.99
2017-01-26T08:06:49.037Z,99.99
2017-01-26T08:07:49.001Z,99.99
2017-01-26T08:08:48.974Z,99.99
2017-01-26T08:09:48.943Z,99.99
2017-01-26T08:10:48.515Z,99.99
2017-01-26T08:11:48.554Z,99.99
2017-01-26T08:12:48.865Z,99.99
2017-01-26T08:13:48.834Z,99.99
2017-01-26T08:14:48.387Z,99.99
2017-01-26T08:15:48.785Z,99.99
2017-01-26T08:16:48.341Z,99.71
2017-01-26T08:17:48.718Z,99.71
2017-01-26T08:18:48.688Z,98.96
2017-01-26T08:19:48.260Z,98.68
2017-01-26T08:20:48.622Z,98.49
2017-01-26T08:21:48.609Z,97.3
2017-01-26T08:22:48.566Z,97.4
2017-01-26T08:23:48.155Z,96.83
2017-01-26T08:24:48.122Z,97.11
2017-01-26T08:25:48.097Z,97.3
2017-01-26T08:26:48.468Z,98.01
2017-01-26T08:27:48.443Z,97.92
2017-01-26T08:28:48.014Z,98.2
2017-01-26T08:29:48.395Z,98.86
2017-01-26T08:30:48.372Z,98.96
2017-01-26T08:31:48.362Z,98.77
2017-01-26T08:32:48.311Z,98.49
2017-01-26T08:33:48.275Z,98.68
2017-01-26T08:34:47.849Z,98.49
2017-01-26T08:35:47.830Z,98.39
2017-01-26T08:36:48.209Z,98.68
2017-01-26T08:37:48.184Z,99.24
2017-01-26T08:38:48.149Z,98.77
2017-01-26T08:39:48.137Z,99.15
2017-01-26T08:40:48.097Z,99.43
2017-01-26T08:41:48.070Z,99.05
2017-01-26T08:42:47.641Z,99.24
2017-01-26T08:43:48.029Z,98.86
2017-01-26T08:44:47.988Z,97.68
2017-01-26T08:45:47.973Z,96.64
2017-01-26T08:46:47.534Z,95.65
2017-01-26T08:47:47.511Z,94.04
2017-01-26T08:48:47.496Z,94.04
2017-01-26T08:49:47.868Z,93.27
2017-01-26T08:50:47.844Z,92.61
2017-01-26T08:51:47.412Z,92.04
2017-01-26T08:52:47.386Z,91.8
2017-01-26T08:53:47.363Z,91.24
2017-01-26T08:54:47.751Z,89.67
2017-01-26T08:55:47.729Z,88.43
2017-01-26T08:56:47.708Z,87.05
2017-01-26T08:57:47.289Z,86.2
2017-01-26T08:58:47.678Z,84.91
2017-01-26T08:59:47.243Z,83.97
2017-01-26T09:00:47.218Z,83.2
2017-01-26T09:01:47.592Z,82.82
2017-01-26T09:02:47.573Z,83.16
2017-01-26T09:03:47.549Z,83.83
2017-01-26T09:04:47.531Z,83.01
2017-01-26T09:05:47.517Z,82.35
2017-01-26T09:06:47.080Z,82.69
2017-01-26T09:07:47.060Z,83.01
2017-01-26T09:08:47.449Z,81.78
2017-01-26T09:09:47.432Z,80.49
2017-01-26T09:10:47.004Z,80.83
2017-01-26T09:11:47.391Z,79.73
2017-01-26T09:12:47.369Z,78.72
2017-01-26T09:13:47.360Z,77.58
2017-01-26T09:14:47.332Z,79.06
2017-01-26T09:15:47.308Z,79.79
2017-01-26T09:16:47.297Z,80.35
2017-01-26T09:17:46.878Z,81.93
2017-01-26T09:18:47.260Z,82.21
2017-01-26T09:19:47.246Z,82.16
2017-01-26T09:20:47.231Z,81.54
2017-01-26T09:21:47.201Z,80.55
2017-01-26T09:22:47.186Z,80.07
2017-01-26T09:23:47.168Z,79.58
2017-01-26T09:24:47.166Z,78.06
2017-01-26T09:25:47.297Z,77.62
2017-01-26T09:26:46.842Z,77.39
2017-01-26T09:27:46.693Z,77.39
2017-01-26T09:28:47.102Z,79.25
2017-01-26T09:29:46.666Z,80.83
2017-01-26T09:30:46.730Z,81.02
2017-01-26T09:31:46.648Z,80.4
2017-01-26T09:32:46.621Z,79.63
2017-01-26T09:33:47.009Z,79.73
2017-01-26T09:34:46.679Z,79.01
2017-01-26T09:35:46.568Z,78.4
2017-01-26T09:36:46.951Z,77.45
2017-01-26T09:37:47.082Z,78.78
2017-01-26T09:38:47.015Z,79.16
2017-01-26T09:39:46.996Z,79.25
2017-01-26T09:40:46.892Z,79.2
2017-01-26T09:41:46.885Z,80.45
2017-01-26T09:42:46.624Z,79.06
2017-01-26T09:43:46.441Z,77.68
2017-01-26T09:44:46.433Z,78.4
2017-01-26T09:45:46.812Z,80.16
2017-01-26T09:46:46.822Z,80.93
2017-01-26T09:47:46.375Z,80.64
2017-01-26T09:48:46.441Z,80.55
2017-01-26T09:49:46.413Z,78.88
2017-01-26T09:50:46.730Z,78.59
2017-01-26T09:51:46.731Z,79.35
2017-01-26T09:52:46.732Z,79.6
2017-01-26T09:53:46.687Z,81.55
2017-01-26T09:54:46.668Z,82.74
2017-01-26T09:55:46.238Z,81.97
2017-01-26T09:56:46.726Z,80.55
2017-01-26T09:57:46.638Z,79.06
2017-01-26T09:58:46.701Z,78.69
2017-01-26T09:59:46.595Z,78.64
2017-01-26T10:00:46.603Z,78.93
2017-01-26T10:01:46.554Z,79.06
2017-01-26T10:02:46.604Z,79.41
2017-01-26T10:03:46.572Z,79.5
2017-01-26T10:04:46.145Z,79.16
2017-01-26T10:05:46.490Z,78.3
2017-01-26T10:06:46.469Z,76.57
2017-01-26T10:07:46.459Z,74.77
2017-01-26T10:08:46.489Z,73.28
2017-01-26T10:09:46.021Z,72.94
2017-01-26T10:10:45.998Z,72.52
2017-01-26T10:11:46.457Z,72.81
2017-01-26T10:12:45.982Z,73.53
2017-01-26T10:13:46.358Z,73.91
2017-01-26T10:14:45.945Z,74.04
2017-01-26T10:15:45.926Z,72.9
2017-01-26T10:16:46.325Z,71.98
2017-01-26T10:17:46.303Z,71.67
2017-01-26T10:18:45.883Z,71.76
2017-01-26T10:19:46.274Z,72.86
2017-01-26T10:20:45.851Z,73.49
2017-01-26T10:21:46.243Z,73.97
2017-01-26T10:22:46.222Z,74.35
2017-01-26T10:23:45.809Z,74.92
2017-01-26T10:24:46.186Z,75.21
2017-01-26T10:25:45.781Z,74.92
2017-01-26T10:26:46.162Z,75.02
2017-01-26T10:27:46.146Z,74.16
2017-01-26T10:28:45.728Z,73.44
2017-01-26T10:29:46.110Z,73.34
2017-01-26T10:30:46.095Z,72.96
2017-01-26T10:31:45.675Z,72.77
2017-01-26T10:32:45.663Z,72.39
2017-01-26T10:33:46.049Z,71.67
2017-01-26T10:34:46.034Z,72.39
2017-01-26T10:35:45.620Z,72.33
2017-01-26T10:36:45.604Z,72.05
2017-01-26T10:37:45.992Z,71.32
2017-01-26T10:38:45.573Z,70.94
2017-01-26T10:39:45.557Z,69.17
2017-01-26T10:40:45.950Z,68.34
2017-01-26T10:41:45.525Z,67.86
2017-01-26T10:42:45.916Z,66.94
2017-01-26T10:43:45.898Z,66.94
2017-01-26T10:44:45.487Z,66.63
2017-01-26T10:45:45.882Z,67.29
2017-01-26T10:46:45.862Z,67.2
2017-01-26T10:47:45.846Z,67.26
2017-01-26T10:48:45.826Z,68.21
2017-01-26T10:49:45.405Z,68.21
2017-01-26T10:50:45.800Z,68.78
2017-01-26T10:51:45.787Z,68.3
2017-01-26T10:52:45.796Z,68.05
2017-01-26T10:53:45.766Z,68.75
2017-01-26T10:54:45.754Z,69.67
2017-01-26T10:55:45.733Z,69.79
2017-01-26T10:56:45.715Z,69.51
2017-01-26T10:57:45.700Z,69.45
2017-01-26T10:58:45.679Z,68.56
2017-01-26T10:59:45.265Z,68.4
2017-01-26T11:00:45.647Z,68.3
2017-01-26T11:01:45.637Z,68.4
2017-01-26T11:02:45.642Z,68.84
2017-01-26T11:03:45.607Z,68.84
2017-01-26T11:04:45.595Z,68.69
2017-01-26T11:05:45.595Z,68.56
2017-01-26T11:06:45.156Z,69.67
2017-01-26T11:07:45.548Z,71.72
2017-01-26T11:08:45.550Z,72.64
2017-01-26T11:09:45.514Z,72.2
2017-01-26T11:10:45.499Z,72.11
2017-01-26T11:11:45.483Z,71.09
2017-01-26T11:12:45.473Z,69.54
2017-01-26T11:13:45.453Z,67.68
2017-01-26T11:14:45.433Z,66.82
2017-01-26T11:15:45.425Z,66.78
2017-01-26T11:16:45.396Z,67.16
2017-01-26T11:17:45.402Z,67.64
2017-01-26T11:18:44.972Z,70.1
2017-01-26T11:19:44.951Z,72.35
2017-01-26T11:20:44.937Z,73.74
2017-01-26T11:21:45.323Z,73.21
2017-01-26T11:22:45.314Z,71.76
2017-01-26T11:23:45.295Z,71.09
2017-01-26T11:24:44.886Z,71.25
2017-01-26T11:25:45.311Z,71.44
2017-01-26T11:26:45.255Z,71.09
2017-01-26T11:27:45.224Z,69.57
2017-01-26T11:28:45.208Z,68.94
2017-01-26T11:29:45.219Z,69.1
2017-01-26T11:30:44.778Z,69.19
2017-01-26T11:31:45.161Z,70.2
2017-01-26T11:32:45.149Z,71.15
2017-01-26T11:33:44.779Z,71.31
2017-01-26T11:34:45.109Z,71.91
2017-01-26T11:35:45.168Z,71.15
2017-01-26T11:36:44.679Z,71.28
2017-01-26T11:37:45.156Z,71.72
2017-01-26T11:38:51.418Z,71.15
2017-01-26T11:39:51.419Z,71.34
2017-01-26T11:40:51.386Z,71.06
2017-01-26T11:41:51.374Z,70.14
2017-01-26T11:42:50.955Z,69.19
2017-01-26T11:43:51.364Z,68.56
2017-01-26T11:44:51.322Z,67.55
2017-01-26T11:45:50.896Z,66.91
2017-01-26T11:46:51.278Z,67.7
2017-01-26T11:47:51.306Z,69.44
2017-01-26T11:48:51.262Z,71.5
2017-01-26T11:49:51.241Z,71.97
2017-01-26T11:50:50.859Z,71.06
2017-01-26T11:51:51.194Z,70.14
2017-01-26T11:52:50.858Z,69.57
2017-01-26T11:53:51.173Z,68.65
2017-01-26T11:54:51.145Z,69.38
2017-01-26T11:55:50.725Z,70.05
2017-01-26T11:56:51.148Z,70.14
2017-01-26T11:57:51.107Z,70.08
2017-01-26T11:58:51.087Z,69.92
2017-01-26T11:59:51.063Z,69.29
2017-01-26T12:00:51.046Z,68.65
2017-01-26T12:01:51.027Z,68.08
2017-01-26T12:02:50.618Z,67.35
2017-01-26T12:03:50.994Z,67.13
2017-01-26T12:04:51.004Z,67.7
2017-01-26T12:05:51.017Z,67.51
2017-01-26T12:06:51.042Z,67.16
2017-01-26T12:07:50.927Z,66.5
2017-01-26T12:08:50.514Z,66.5
2017-01-26T12:09:50.900Z,67.22
2017-01-26T12:10:50.520Z,68.15
2017-01-26T12:11:50.854Z,68.43
2017-01-26T12:12:50.868Z,68.27
2017-01-26T12:13:50.824Z,67.51
2017-01-26T12:14:50.806Z,66.88
2017-01-26T12:15:50.373Z,66.97
2017-01-26T12:16:50.409Z,67.55
2017-01-26T12:17:50.812Z,69.51
2017-01-26T12:18:50.766Z,70.18
2017-01-26T12:19:50.714Z,70.62
2017-01-26T12:20:50.707Z,71.09
2017-01-26T12:21:50.734Z,69.95
2017-01-26T12:22:50.354Z,69.42
2017-01-26T12:23:50.644Z,68.4
2017-01-26T12:24:50.633Z,67.93
2017-01-26T12:25:50.216Z,68.37
2017-01-26T12:26:50.689Z,67.26
2017-01-26T12:27:50.613Z,66.63
2017-01-26T12:28:50.580Z,66.24
2017-01-26T12:29:50.543Z,65.42
2017-01-26T12:30:50.105Z,65.33
2017-01-26T12:31:50.504Z,64.47
2017-01-26T12:32:50.485Z,64.88
2017-01-26T12:33:50.467Z,64.31
2017-01-26T12:34:50.042Z,64.47
2017-01-26T12:35:50.426Z,65.67
2017-01-26T12:36:50.415Z,67.07
2017-01-26T12:37:50.446Z,66.78
2017-01-26T12:38:50.384Z,66.15
2017-01-26T12:39:50.376Z,66.5
2017-01-26T12:40:49.948Z,66.75
2017-01-26T12:41:49.937Z,66.59
2017-01-26T12:42:50.323Z,67.32
2017-01-26T12:43:50.320Z,68.71
2017-01-26T12:44:49.896Z,69.48
2017-01-26T12:45:49.855Z,69.67
2017-01-26T12:46:50.250Z,69.67
2017-01-26T12:47:50.236Z,68.65
2017-01-26T12:48:50.207Z,68.18
2017-01-26T12:49:49.791Z,68.12
2017-01-26T12:50:49.781Z,68.46
2017-01-26T12:51:50.184Z,68.27
2017-01-26T12:52:49.739Z,68.71